sim
Sign-in with your pilot id or email,
or register
Callsign
Passwort

Schedule Details

Flight Number: EWG6002
Departure: Dusseldorf International Airport (EDDL) at 17:50
Arrival: Munich Airport (EDDM) at 18:55
Route: Eurowings Passenger Schedule. Enter filed route here before submitting Pirep.

Weather Information
Getting current METAR information for EDDL 191520Z 06006KT 030V120 CAVOK 26/06 Q1016 NOSIG
Getting current METAR information for EDDM 191520Z 04004KT 350V080 CAVOK 21/12 Q1017 NOSIG

Schedule Frequency

Route Map